Overview Statistics Trail Chart Weather Telemetry Raw packets
 

This is the latest recevied weather packets stored in our database for station/object SV9TNF-55. If no packets are shown the sender has not sent any weather packets the latest 10 day(s).

<< 23 24 25 26 27 28 29 >>
Time Temp. Humidity Pressure Rain* Wind** Luminosity Snow
1788310652 21.11° C 27% 1014.7 hPa 0 mm 0.89 m/s, 315° - -
1788310052 21.11° C 27% 1014.7 hPa 0 mm 0.89 m/s, 315° - -
1788309451 21.11° C 27% 1014.7 hPa 0 mm 0.89 m/s, 315° - -
1788308851 19.44° C 35% 1014.7 hPa 0 mm 0.89 m/s, 292° - -
1788308251 19.44° C 35% 1014.7 hPa 0 mm 0.89 m/s, 292° - -
1788307651 19.44° C 35% 1014.7 hPa 0 mm 0.89 m/s, 292° - -
1788307052 19.44° C 40% 1014.7 hPa 0 mm 0.89 m/s, 337° - -
1788306451 20.56° C 37% 1014.7 hPa 0 mm 1.34 m/s, 292° - -
1788305851 20.56° C 37% 1014.7 hPa 0 mm 1.34 m/s, 292° - -
1788305250 19.44° C 43% 1014.7 hPa 0 mm 1.34 m/s, 292° - -
1788304670 18.89° C 46% 1014.7 hPa 0 mm 0.45 m/s, 292° - -
1788304050 20° C 42% 1014.6 hPa 0 mm 0.45 m/s, 315° - -
1788303450 20° C 42% 1014.6 hPa 0 mm 0.45 m/s, 315° - -
1788302850 20° C 42% 1014.6 hPa 0 mm 0.45 m/s, 315° - -
1788302251 20° C 42% 1014.6 hPa 0 mm 0.45 m/s, 315° - -
1788301650 20° C 42% 1014.6 hPa 0 mm 0.45 m/s, 315° - -
1788301050 20° C 42% 1014.6 hPa 0 mm 0.45 m/s, 315° - -
1788300473 20° C 42% 1014.6 hPa 0 mm 0.45 m/s, 315° - -
1788299850 20° C 42% 1014.6 hPa 0 mm 0.45 m/s, 315° - -
1788299250 20° C 42% 1014.6 hPa 0 mm 0.45 m/s, 315° - -
1788298649 20° C 42% 1014.6 hPa 0 mm 0.45 m/s, 315° - -
1788298050 20.56° C 46% 1014.7 hPa 0 mm 0.45 m/s, 292° - -
1788297449 20.56° C 46% 1014.7 hPa 0 mm 0.45 m/s, 292° - -
1788296849 20° C 49% 1014.8 hPa 0 mm 0 m/s - -
1788296250 20° C 49% 1014.8 hPa 0 mm 0 m/s - -

* Rain latest hour (hover to see other rain measurements)
** Current wind speed in m/s (hover to see current wind gust speed)